createdAt,value
2018-06-28T00:02:19.047Z,17.50
2018-06-28T00:04:48.606Z,17.50
2018-06-28T00:07:18.159Z,17.40
2018-06-28T00:09:47.609Z,17.40
2018-06-28T00:12:17.144Z,17.30
2018-06-28T00:14:46.744Z,17.20
2018-06-28T00:17:16.186Z,17.20
2018-06-28T00:19:45.669Z,17.20
2018-06-28T00:22:15.228Z,17.20
2018-06-28T00:24:44.852Z,17.10
2018-06-28T00:27:14.343Z,17.10
2018-06-28T00:29:43.867Z,17.00
2018-06-28T00:32:13.392Z,17.00
2018-06-28T00:34:42.985Z,17.00
2018-06-28T00:37:12.463Z,16.90
2018-06-28T00:39:42.006Z,16.80
2018-06-28T00:42:11.551Z,16.80
2018-06-28T00:44:41.033Z,16.70
2018-06-28T00:47:10.563Z,16.70
2018-06-28T00:49:40.128Z,16.60
2018-06-28T00:52:09.606Z,16.50
2018-06-28T00:54:39.107Z,16.50
2018-06-28T00:57:08.763Z,16.50
2018-06-28T00:59:38.324Z,16.40
2018-06-28T01:02:07.908Z,16.40
2018-06-28T01:04:37.485Z,16.30
2018-06-28T01:07:07.165Z,16.30
2018-06-28T01:09:36.772Z,16.30
2018-06-28T01:12:06.374Z,16.20
2018-06-28T01:14:35.839Z,16.20
2018-06-28T01:17:05.544Z,16.20
2018-06-28T01:19:35.155Z,16.10
2018-06-28T01:22:04.668Z,16.10
2018-06-28T01:24:34.173Z,16.10
2018-06-28T01:27:03.682Z,16.00
2018-06-28T01:29:33.263Z,16.00
2018-06-28T01:32:02.804Z,15.90
2018-06-28T01:34:32.276Z,15.90
2018-06-28T01:37:01.818Z,15.90
2018-06-28T01:39:31.326Z,15.90
2018-06-28T01:45:57.181Z,15.90
2018-06-28T01:48:26.668Z,15.90
2018-06-28T01:50:56.521Z,15.90
2018-06-28T01:53:26.557Z,15.80
2018-06-28T01:55:56.139Z,15.80
2018-06-28T01:58:25.660Z,15.80
2018-06-28T02:00:55.143Z,15.70
2018-06-28T02:03:24.805Z,15.70
2018-06-28T02:05:55.071Z,15.70
2018-06-28T02:08:24.594Z,15.60
2018-06-28T02:10:54.092Z,15.60
2018-06-28T02:13:23.692Z,15.60
2018-06-28T02:15:53.222Z,15.60
2018-06-28T02:18:22.731Z,15.60
2018-06-28T02:20:52.243Z,15.50
2018-06-28T02:23:21.846Z,15.50
2018-06-28T02:25:51.376Z,15.60
2018-06-28T02:28:20.867Z,15.60
2018-06-28T02:30:50.376Z,15.50
2018-06-28T02:33:19.911Z,15.50
2018-06-28T02:35:49.403Z,15.50
2018-06-28T02:38:18.894Z,15.50
2018-06-28T02:43:17.588Z,15.40
2018-06-28T02:45:47.068Z,15.40
2018-06-28T02:48:16.524Z,15.30
2018-06-28T02:50:46.115Z,15.30
2018-06-28T02:53:15.710Z,15.30
2018-06-28T02:55:45.170Z,15.20
2018-06-28T02:58:14.603Z,15.20
2018-06-28T03:00:44.169Z,15.20
2018-06-28T03:03:13.681Z,15.10
2018-06-28T03:05:43.163Z,15.10
2018-06-28T03:08:12.706Z,15.10
2018-06-28T03:10:42.209Z,15.10
2018-06-28T03:13:11.707Z,15.00
2018-06-28T03:15:41.189Z,15.10
2018-06-28T03:18:10.684Z,15.00
2018-06-28T03:20:40.330Z,15.00
2018-06-28T03:23:09.828Z,15.00
2018-06-28T03:25:39.304Z,15.00
2018-06-28T03:28:09.130Z,15.00
2018-06-28T03:30:38.652Z,15.00
2018-06-28T03:33:08.182Z,15.00
2018-06-28T03:35:37.669Z,15.00
2018-06-28T03:38:07.368Z,15.00
2018-06-28T03:40:36.870Z,15.10
2018-06-28T03:43:06.324Z,15.10
2018-06-28T03:45:35.886Z,15.10
2018-06-28T03:48:05.473Z,15.10
2018-06-28T03:50:35.030Z,15.10
2018-06-28T03:53:04.531Z,15.20
2018-06-28T03:55:34.097Z,15.10
2018-06-28T03:58:03.605Z,15.20
2018-06-28T04:00:33.125Z,15.10
2018-06-28T04:03:02.658Z,15.20
2018-06-28T04:05:32.231Z,15.10
2018-06-28T04:08:01.909Z,15.20
2018-06-28T04:10:31.885Z,15.20
2018-06-28T04:13:01.382Z,15.20
2018-06-28T04:15:30.960Z,15.20
2018-06-28T04:18:00.529Z,15.30
2018-06-28T04:20:29.991Z,15.30
2018-06-28T04:22:59.424Z,15.30
2018-06-28T04:25:28.948Z,15.30
2018-06-28T04:27:58.495Z,15.30
2018-06-28T04:30:27.976Z,15.40
2018-06-28T04:32:57.662Z,15.40
2018-06-28T04:35:27.247Z,15.50
2018-06-28T04:37:56.746Z,15.50
2018-06-28T04:40:26.220Z,15.50
2018-06-28T04:42:55.755Z,15.60
2018-06-28T04:45:25.226Z,15.60
2018-06-28T04:47:55.122Z,15.60
2018-06-28T04:50:24.718Z,15.70
2018-06-28T04:52:54.331Z,15.70
2018-06-28T04:55:24.574Z,15.70
2018-06-28T04:57:54.385Z,15.80
2018-06-28T05:00:23.940Z,15.80
2018-06-28T05:02:53.639Z,15.80
2018-06-28T05:05:23.242Z,15.90
2018-06-28T05:07:52.754Z,15.90
2018-06-28T05:10:22.231Z,16.00
2018-06-28T05:12:51.705Z,16.10
2018-06-28T05:15:21.156Z,16.10
2018-06-28T05:17:50.801Z,16.20
2018-06-28T05:20:20.206Z,16.20
2018-06-28T05:22:49.708Z,16.30
2018-06-28T05:25:19.314Z,16.40
2018-06-28T05:27:48.770Z,16.50
2018-06-28T05:30:18.295Z,16.60
2018-06-28T05:32:47.791Z,16.70
2018-06-28T05:35:17.208Z,16.80
2018-06-28T05:37:46.652Z,16.90
2018-06-28T05:40:16.130Z,17.00
2018-06-28T05:42:45.680Z,17.10
2018-06-28T05:45:15.116Z,17.10
2018-06-28T05:47:44.570Z,17.20
2018-06-28T05:50:14.090Z,17.20
2018-06-28T05:52:43.642Z,17.30
2018-06-28T05:57:42.292Z,17.50
2018-06-28T06:00:11.800Z,17.50
2018-06-28T06:02:41.222Z,17.60
2018-06-28T06:05:10.671Z,17.70
2018-06-28T06:07:40.173Z,17.80
2018-06-28T06:10:09.732Z,17.80
2018-06-28T06:12:39.137Z,17.90
2018-06-28T06:15:08.541Z,18.00
2018-06-28T06:17:38.071Z,18.00
2018-06-28T06:20:09.313Z,18.10
2018-06-28T06:22:38.774Z,18.20
2018-06-28T06:25:08.226Z,18.20
2018-06-28T06:27:37.748Z,18.30
2018-06-28T06:30:08.197Z,18.40
2018-06-28T06:32:37.704Z,18.40
2018-06-28T06:35:07.162Z,18.50
2018-06-28T06:37:36.607Z,18.60
2018-06-28T06:40:06.355Z,18.60
2018-06-28T06:42:35.834Z,18.70
2018-06-28T06:45:05.873Z,18.70
2018-06-28T06:47:35.395Z,18.80
2018-06-28T06:50:04.919Z,18.90
2018-06-28T06:52:34.380Z,18.90
2018-06-28T06:55:03.857Z,19.00
2018-06-28T06:57:33.428Z,19.10
2018-06-28T07:00:02.843Z,19.10
2018-06-28T07:02:32.261Z,19.20
2018-06-28T07:05:01.693Z,19.30
2018-06-28T07:07:31.227Z,19.40
2018-06-28T07:10:00.736Z,19.50
2018-06-28T07:12:30.186Z,19.60
2018-06-28T07:14:59.607Z,19.60
2018-06-28T07:17:29.207Z,19.70
2018-06-28T07:19:58.635Z,19.70
2018-06-28T07:22:28.046Z,19.80
2018-06-28T07:24:57.598Z,19.80
2018-06-28T07:27:27.048Z,19.90
2018-06-28T07:29:56.459Z,19.90
2018-06-28T07:32:25.877Z,20.00
2018-06-28T07:34:55.334Z,20.10
2018-06-28T07:37:24.791Z,20.20
2018-06-28T07:39:54.210Z,20.20
2018-06-28T07:42:23.718Z,20.30
2018-06-28T07:44:59.386Z,20.40
2018-06-28T07:47:28.836Z,20.40
2018-06-28T07:49:58.290Z,20.50
2018-06-28T07:52:27.837Z,20.50
2018-06-28T07:54:57.263Z,20.60
2018-06-28T07:57:26.676Z,20.60
2018-06-28T07:59:56.212Z,20.70
2018-06-28T08:02:25.764Z,20.80
2018-06-28T08:04:55.187Z,20.90
2018-06-28T08:07:24.615Z,21.00
2018-06-28T08:09:54.166Z,21.10
2018-06-28T08:12:23.621Z,21.20
2018-06-28T08:14:53.027Z,21.30
2018-06-28T08:17:22.606Z,21.40
2018-06-28T08:19:52.135Z,21.50
2018-06-28T08:22:21.574Z,21.60
2018-06-28T08:24:51.026Z,21.80
2018-06-28T08:27:20.540Z,22.00
2018-06-28T08:29:52.244Z,22.20
2018-06-28T08:32:28.048Z,22.30
2018-06-28T08:34:57.484Z,22.50
2018-06-28T08:37:27.035Z,22.60
2018-06-28T08:39:56.491Z,22.70
2018-06-28T08:42:25.891Z,22.80
2018-06-28T08:44:55.347Z,22.90
2018-06-28T08:47:24.869Z,22.90
2018-06-28T08:49:54.315Z,23.00
2018-06-28T08:52:23.721Z,23.10
2018-06-28T08:57:22.325Z,23.30
2018-06-28T08:59:51.772Z,23.50
2018-06-28T09:02:21.226Z,23.60
2018-06-28T09:04:50.813Z,23.70
2018-06-28T09:07:20.384Z,23.80
2018-06-28T09:09:49.777Z,23.80
2018-06-28T09:12:19.208Z,23.90
2018-06-28T09:14:48.702Z,24.00
2018-06-28T09:17:18.173Z,24.10
2018-06-28T09:19:47.617Z,24.20
2018-06-28T09:22:17.286Z,24.30
2018-06-28T09:27:15.950Z,24.50
2018-06-28T09:29:45.376Z,24.60
2018-06-28T09:32:14.862Z,24.80
2018-06-28T09:34:44.291Z,24.90
2018-06-28T09:37:13.711Z,25.00
2018-06-28T09:39:43.234Z,25.10
2018-06-28T09:42:12.750Z,25.30
2018-06-28T09:44:42.161Z,25.50
2018-06-28T09:47:11.572Z,25.60
2018-06-28T09:49:41.135Z,25.80
2018-06-28T09:52:10.693Z,25.90
2018-06-28T09:54:40.113Z,26.10
2018-06-28T09:57:09.545Z,26.30
2018-06-28T09:59:39.177Z,26.50
2018-06-28T10:02:08.628Z,26.70
2018-06-28T10:04:38.445Z,27.00
2018-06-28T10:07:08.494Z,27.10
2018-06-28T10:09:38.025Z,27.30
2018-06-28T10:12:07.663Z,27.60
2018-06-28T10:14:37.145Z,27.70
2018-06-28T10:17:06.738Z,27.90
2018-06-28T10:19:36.391Z,27.90
2018-06-28T10:22:05.913Z,28.10
2018-06-28T10:24:35.656Z,28.30
2018-06-28T10:27:05.181Z,28.40
2018-06-28T10:29:34.710Z,28.60
2018-06-28T10:32:04.276Z,28.90
2018-06-28T10:34:33.685Z,29.10
2018-06-28T10:37:03.182Z,29.30
2018-06-28T10:42:01.813Z,29.40
2018-06-28T10:44:31.285Z,29.50
2018-06-28T10:47:00.762Z,29.70
2018-06-28T10:49:30.212Z,29.80
2018-06-28T10:51:59.626Z,29.80
2018-06-28T10:54:29.090Z,29.70
2018-06-28T10:56:58.678Z,29.60
2018-06-28T10:59:28.333Z,29.80
2018-06-28T11:01:57.706Z,30.10
2018-06-28T11:04:27.240Z,30.30
2018-06-28T11:06:56.686Z,30.70
2018-06-28T11:09:26.119Z,30.90
2018-06-28T11:11:55.536Z,31.20
2018-06-28T11:14:25.088Z,31.30
2018-06-28T11:22:49.324Z,31.20
2018-06-28T11:25:18.748Z,31.10
2018-06-28T11:27:48.290Z,31.10
2018-06-28T11:30:17.771Z,31.20
2018-06-28T11:32:47.167Z,31.50
2018-06-28T11:35:16.591Z,31.70
2018-06-28T11:37:46.089Z,32.00
2018-06-28T11:40:15.502Z,32.50
2018-06-28T11:42:44.894Z,33.20
2018-06-28T11:45:14.520Z,33.40
2018-06-28T11:47:44.117Z,33.60
2018-06-28T11:50:13.544Z,33.90
2018-06-28T11:52:42.988Z,34.40
2018-06-28T11:55:12.584Z,34.50
2018-06-28T11:57:42.027Z,34.30
2018-06-28T12:00:11.456Z,34.50
2018-06-28T12:02:40.955Z,33.90
2018-06-28T12:05:10.424Z,33.90
2018-06-28T12:07:39.930Z,33.90
2018-06-28T12:10:09.395Z,33.40
2018-06-28T12:12:38.847Z,33.50
2018-06-28T12:15:08.426Z,33.50
2018-06-28T12:17:37.833Z,34.30
2018-06-28T12:20:07.255Z,35.20
2018-06-28T12:22:43.067Z,36.30
2018-06-28T12:25:12.493Z,36.80
2018-06-28T12:27:41.911Z,37.20
2018-06-28T12:30:11.395Z,37.60
2018-06-28T12:32:40.874Z,38.00
2018-06-28T12:35:10.313Z,38.30
2018-06-28T12:37:39.888Z,38.40
2018-06-28T12:40:09.419Z,38.60
2018-06-28T12:42:38.991Z,38.90
2018-06-28T12:45:08.444Z,39.00
2018-06-28T12:47:55.540Z,39.30
2018-06-28T12:50:25.086Z,39.40
2018-06-28T12:52:57.788Z,39.60
2018-06-28T12:55:28.135Z,39.60
2018-06-28T12:57:58.426Z,39.90
2018-06-28T13:00:27.894Z,38.80
2018-06-28T13:02:57.301Z,37.90
2018-06-28T13:05:26.840Z,38.30
2018-06-28T13:07:56.494Z,38.70
2018-06-28T13:10:25.928Z,39.30
2018-06-28T13:12:55.408Z,40.10
2018-06-28T13:15:24.894Z,40.60
2018-06-28T13:17:54.426Z,41.00
2018-06-28T13:20:23.930Z,41.40
2018-06-28T13:22:53.328Z,41.40
2018-06-28T13:25:22.835Z,41.40
2018-06-28T13:30:21.481Z,40.60
2018-06-28T13:32:51.014Z,41.10
2018-06-28T13:35:20.550Z,41.80
2018-06-28T13:37:50.086Z,41.80
2018-06-28T13:40:19.517Z,42.00
2018-06-28T13:42:49.004Z,42.30
2018-06-28T13:45:18.790Z,42.40
2018-06-28T13:47:48.209Z,42.80
2018-06-28T13:50:17.617Z,43.00
2018-06-28T13:52:47.097Z,43.20
2018-06-28T13:55:16.552Z,42.40
2018-06-28T13:57:46.026Z,41.30
2018-06-28T14:00:15.514Z,41.50
2018-06-28T14:02:45.027Z,42.40
2018-06-28T14:05:14.453Z,43.00
2018-06-28T14:07:43.888Z,43.50
2018-06-28T14:10:13.418Z,43.70
2018-06-28T14:12:42.960Z,43.90
2018-06-28T14:15:13.313Z,43.80
2018-06-28T14:17:43.289Z,43.90
2018-06-28T14:20:12.820Z,44.00
2018-06-28T14:22:42.435Z,44.40
2018-06-28T14:25:11.883Z,44.40
2018-06-28T14:27:41.325Z,43.30
2018-06-28T14:30:12.503Z,43.40
2018-06-28T14:32:43.294Z,44.10
2018-06-28T14:35:13.108Z,44.40
2018-06-28T14:37:42.540Z,44.50
2018-06-28T14:40:12.010Z,45.00
2018-06-28T14:42:41.575Z,45.20
2018-06-28T14:45:11.098Z,44.40
2018-06-28T14:47:40.635Z,41.90
2018-06-28T14:50:10.136Z,40.10
2018-06-28T14:52:39.640Z,40.60
2018-06-28T14:55:09.163Z,41.90
2018-06-28T14:57:38.638Z,42.50
2018-06-28T15:00:08.382Z,43.70
2018-06-28T15:02:37.998Z,44.60
2018-06-28T15:05:07.527Z,44.80
2018-06-28T15:07:37.053Z,45.20
2018-06-28T15:10:06.494Z,45.70
2018-06-28T15:12:35.981Z,44.80
2018-06-28T15:15:06.046Z,43.20
2018-06-28T15:17:35.458Z,40.70
2018-06-28T15:20:05.680Z,38.40
2018-06-28T15:22:35.189Z,37.70
2018-06-28T15:25:04.783Z,39.50
2018-06-28T15:27:34.550Z,41.90
2018-06-28T15:30:04.483Z,43.80
2018-06-28T15:32:34.124Z,44.70
2018-06-28T15:35:04.297Z,45.10
2018-06-28T15:37:34.431Z,45.40
2018-06-28T15:40:04.007Z,44.90
2018-06-28T15:42:33.650Z,44.40
2018-06-28T15:45:03.359Z,42.80
2018-06-28T15:47:33.014Z,41.10
2018-06-28T15:50:02.793Z,41.70
2018-06-28T15:52:32.282Z,42.80
2018-06-28T15:55:01.921Z,44.50
2018-06-28T15:57:31.627Z,45.60
2018-06-28T16:00:01.325Z,45.50
2018-06-28T16:02:31.190Z,44.50
2018-06-28T16:05:00.877Z,43.70
2018-06-28T16:07:30.578Z,44.20
2018-06-28T16:10:00.095Z,44.00
2018-06-28T16:12:29.658Z,43.60
2018-06-28T16:14:59.696Z,43.60
2018-06-28T16:17:29.523Z,43.40
2018-06-28T16:19:59.125Z,42.60
2018-06-28T16:22:28.596Z,41.40
2018-06-28T16:24:58.847Z,40.50
2018-06-28T16:27:28.425Z,39.20
2018-06-28T16:29:57.912Z,38.00
2018-06-28T16:32:27.399Z,36.70
2018-06-28T16:34:57.014Z,36.10
2018-06-28T16:37:26.512Z,35.90
2018-06-28T16:39:56.067Z,36.90
2018-06-28T16:42:25.577Z,38.10
2018-06-28T16:44:55.807Z,38.80
2018-06-28T16:47:25.396Z,39.30
2018-06-28T16:49:54.832Z,40.20
2018-06-28T16:52:24.321Z,40.30
2018-06-28T16:54:53.827Z,40.70
2018-06-28T16:57:23.333Z,40.60
2018-06-28T16:59:52.870Z,40.40
2018-06-28T17:02:22.314Z,40.50
2018-06-28T17:04:51.931Z,39.60
2018-06-28T17:07:21.459Z,38.00
2018-06-28T17:09:50.896Z,36.10
2018-06-28T17:12:20.368Z,34.80
2018-06-28T17:17:19.072Z,32.50
2018-06-28T17:19:48.551Z,31.70
2018-06-28T17:22:18.128Z,31.20
2018-06-28T17:24:47.595Z,30.90
2018-06-28T17:27:17.048Z,30.60
2018-06-28T17:29:46.566Z,30.60
2018-06-28T17:32:16.148Z,30.60
2018-06-28T17:34:45.724Z,30.60
2018-06-28T17:37:15.504Z,30.50
2018-06-28T17:39:45.630Z,30.40
2018-06-28T17:42:15.443Z,30.40
2018-06-28T17:44:44.935Z,30.30
2018-06-28T17:47:14.350Z,30.20
2018-06-28T17:49:43.941Z,30.00
2018-06-28T17:52:13.471Z,29.90
2018-06-28T17:54:42.940Z,29.70
2018-06-28T17:57:12.382Z,29.60
2018-06-28T17:59:41.846Z,29.30
2018-06-28T18:02:11.348Z,29.10
2018-06-28T18:04:40.844Z,28.90
2018-06-28T18:07:10.386Z,28.70
2018-06-28T18:09:39.868Z,28.50
2018-06-28T18:12:09.383Z,28.40
2018-06-28T18:14:38.831Z,28.40
2018-06-28T18:17:08.410Z,28.30
2018-06-28T18:19:38.165Z,28.30
2018-06-28T18:24:38.143Z,27.90
2018-06-28T18:27:07.580Z,27.70
2018-06-28T18:29:37.955Z,27.60
2018-06-28T18:32:08.384Z,27.40
2018-06-28T18:34:38.283Z,27.40
2018-06-28T18:37:08.245Z,27.40
2018-06-28T18:39:38.640Z,27.20
2018-06-28T18:42:08.988Z,27.20
2018-06-28T18:44:39.254Z,27.20
2018-06-28T18:49:39.367Z,27.00
2018-06-28T18:52:09.854Z,27.00
2018-06-28T18:54:40.184Z,26.90
2018-06-28T18:57:12.046Z,26.80
2018-06-28T18:59:42.643Z,26.70
2018-06-28T19:02:12.698Z,26.60
2018-06-28T19:04:42.321Z,26.50
2018-06-28T19:07:11.721Z,26.50
2018-06-28T19:09:46.419Z,26.30
2018-06-28T19:12:16.833Z,26.20
2018-06-28T19:14:52.814Z,26.20
2018-06-28T19:17:23.267Z,26.10
2018-06-28T19:22:28.118Z,26.10
2018-06-28T19:24:58.142Z,25.90
2018-06-28T19:27:28.426Z,25.90
2018-06-28T19:30:04.184Z,25.80
2018-06-28T19:32:35.824Z,25.70
2018-06-28T19:35:06.665Z,25.60
2018-06-28T19:37:41.512Z,25.50
2018-06-28T19:41:18.171Z,25.40
2018-06-28T19:43:47.744Z,25.30
2018-06-28T19:46:18.413Z,25.20
2018-06-28T19:48:49.279Z,25.00
2018-06-28T19:51:25.167Z,25.00
2018-06-28T19:53:55.022Z,25.00
2018-06-28T19:56:26.059Z,24.90
2018-06-28T19:58:56.562Z,24.80
2018-06-28T20:01:31.279Z,24.80
2018-06-28T20:04:05.835Z,24.70
2018-06-28T20:06:35.254Z,24.60
2018-06-28T20:09:06.370Z,24.50
2018-06-28T20:11:35.977Z,24.50
2018-06-28T20:14:10.696Z,24.30
2018-06-28T20:16:45.478Z,24.20
2018-06-28T20:19:20.135Z,24.20
2018-06-28T20:21:49.645Z,24.10
2018-06-28T20:24:19.094Z,23.90
2018-06-28T20:26:54.096Z,23.90
2018-06-28T20:29:28.938Z,23.80
2018-06-28T20:33:06.357Z,23.60
2018-06-28T20:35:35.856Z,23.60
2018-06-28T20:38:05.218Z,23.50
2018-06-28T20:40:34.783Z,23.40
2018-06-28T20:43:04.245Z,23.40
2018-06-28T20:45:33.713Z,23.30
2018-06-28T20:48:03.177Z,23.30
2018-06-28T20:50:32.753Z,23.20
2018-06-28T20:53:02.256Z,23.20
2018-06-28T20:55:31.687Z,23.10
2018-06-28T20:58:01.314Z,23.10
2018-06-28T21:00:30.906Z,23.00
2018-06-28T21:03:00.356Z,23.10
2018-06-28T21:05:29.855Z,23.00
2018-06-28T21:08:00.141Z,23.00
2018-06-28T21:10:29.598Z,22.90
2018-06-28T21:12:59.154Z,22.90
2018-06-28T21:15:28.602Z,22.90
2018-06-28T21:17:58.153Z,22.90
2018-06-28T21:20:27.649Z,22.80
2018-06-28T21:22:57.150Z,22.70
2018-06-28T21:25:26.598Z,22.70
2018-06-28T21:27:56.166Z,22.60
2018-06-28T21:30:25.671Z,22.60
2018-06-28T21:32:55.105Z,22.50
2018-06-28T21:35:24.641Z,22.50
2018-06-28T21:37:54.361Z,22.50
2018-06-28T21:40:23.785Z,22.40
2018-06-28T21:42:53.220Z,22.30
2018-06-28T21:45:22.689Z,22.30
2018-06-28T21:47:52.347Z,22.20
2018-06-28T21:50:21.755Z,22.20
2018-06-28T21:52:51.226Z,22.10
2018-06-28T21:55:20.878Z,22.00
2018-06-28T21:57:50.226Z,22.00
2018-06-28T22:00:36.690Z,21.90
2018-06-28T22:03:07.494Z,21.90
2018-06-28T22:05:36.986Z,21.90
2018-06-28T22:08:06.853Z,21.90
2018-06-28T22:10:36.175Z,21.80
2018-06-28T22:13:05.636Z,21.70
2018-06-28T22:15:35.076Z,21.70
2018-06-28T22:18:05.221Z,21.70
2018-06-28T22:20:34.791Z,21.60
2018-06-28T22:23:04.261Z,21.60
2018-06-28T22:25:33.701Z,21.50
2018-06-28T22:28:03.220Z,21.50
2018-06-28T22:30:32.907Z,21.40
2018-06-28T22:33:02.339Z,21.40
2018-06-28T22:35:31.855Z,21.30
2018-06-28T22:38:01.346Z,21.30
2018-06-28T22:40:30.774Z,21.30
2018-06-28T22:43:00.236Z,21.20
2018-06-28T22:45:29.748Z,21.20
2018-06-28T22:47:59.237Z,21.20
2018-06-28T22:50:28.709Z,21.10
2018-06-28T22:52:58.071Z,21.00
2018-06-28T22:55:27.511Z,21.00
2018-06-28T22:57:56.939Z,21.00
2018-06-28T23:00:30.226Z,20.90
2018-06-28T23:02:59.717Z,20.90
2018-06-28T23:05:29.161Z,20.90
2018-06-28T23:07:58.675Z,20.80
2018-06-28T23:10:28.156Z,20.80
2018-06-28T23:12:57.567Z,20.70
2018-06-28T23:17:56.236Z,20.70
2018-06-28T23:20:25.676Z,20.70
2018-06-28T23:22:55.109Z,20.60
2018-06-28T23:25:24.585Z,20.60
2018-06-28T23:27:54.080Z,20.50
2018-06-28T23:30:23.666Z,20.50
2018-06-28T23:32:53.167Z,20.40
2018-06-28T23:35:22.640Z,20.40
2018-06-28T23:37:52.073Z,20.30
2018-06-28T23:40:21.481Z,20.30
2018-06-28T23:42:50.882Z,20.30
2018-06-28T23:45:20.381Z,20.20
2018-06-28T23:47:49.931Z,20.20
2018-06-28T23:50:20.257Z,20.20
2018-06-28T23:52:49.695Z,20.10
2018-06-28T23:55:19.152Z,20.10
2018-06-28T23:57:48.594Z,20.00
